Time;durP1;ratioP1;P1;durP2;ratioP2;P2;SDS_P1;SDS_P2;PMS_P1;PMS_P2;Temp;Humidity;BMP_temperature;BMP_pressure;BME280_temperature;BME280_humidity;BME280_pressure;Samples;Min_cycle;Max_cycle;Signal;HPM_P1;HPM_P2
2023/07/07 00:01:04;;;;;;;;;;;;;;;18.93;48.75;100868.16;4843248;29;6784;-70
2023/07/07 00:03:30;;;;;;;;;;;;;;;18.91;48.38;100867.25;4855551;29;6853;-70
2023/07/07 00:05:56;;;;;;;;;;;;;;;18.90;48.96;100861.16;4838255;29;6785;-73
2023/07/07 00:08:22;;;;;;;;;;;;;;;18.91;47.98;100862.91;4838221;29;7200;-72
2023/07/07 00:10:48;;;;;;;;;;;;;;;18.91;48.47;100852.53;4851620;29;7233;-71
2023/07/07 00:13:15;;;;;;;;;;;;;;;18.93;48.16;100853.44;4841601;29;6773;-70
2023/07/07 00:15:44;;;;;;;;;;;;;;;18.95;48.43;100862.16;4840073;29;6817;-71
2023/07/07 00:18:12;;;;;;;;;;;;;;;18.98;48.52;100859.59;4857802;29;7594;-72
2023/07/07 00:20:38;;;;;;;;;;;;;;;18.99;47.81;100853.56;4865274;29;6808;-70
2023/07/07 00:23:04;;;;;;;;;;;;;;;19.00;48.40;100857.94;4841852;29;6856;-70
2023/07/07 00:25:29;;;;;;;;;;;;;;;19.00;48.25;100850.16;4836855;29;6776;-71
2023/07/07 00:27:55;;;;;;;;;;;;;;;18.98;47.53;100854.41;4856903;29;7024;-71
2023/07/07 00:30:20;;;;;;;;;;;;;;;18.95;47.75;100851.75;4866419;29;6781;-71
2023/07/07 00:32:46;;;;;;;;;;;;;;;18.93;47.91;100844.78;4850990;29;7119;-72
2023/07/07 00:35:12;;;;;;;;;;;;;;;18.90;47.62;100850.78;4841272;29;6772;-71
2023/07/07 00:37:37;;;;;;;;;;;;;;;18.89;48.11;100849.03;4855120;29;7006;-72
2023/07/07 00:40:05;;;;;;;;;;;;;;;18.87;47.88;100845.53;4856076;29;6938;-71
2023/07/07 00:42:31;;;;;;;;;;;;;;;18.87;47.86;100845.53;4846490;29;7004;-71
2023/07/07 00:45:19;;;;;;;;;;;;;;;18.86;48.13;100848.97;4847161;29;6954;-70
2023/07/07 00:47:48;;;;;;;;;;;;;;;18.84;47.52;100845.47;4865391;29;6911;-71
2023/07/07 00:50:20;;;;;;;;;;;;;;;18.82;47.97;100844.53;4849486;29;6793;-71
2023/07/07 00:52:46;;;;;;;;;;;;;;;18.81;47.70;100847.97;4863491;29;7720;-70
2023/07/07 00:55:27;;;;;;;;;;;;;;;18.77;48.27;100844.44;4843348;29;6985;-71
2023/07/07 00:57:54;;;;;;;;;;;;;;;18.74;48.34;100842.69;4859288;29;6808;-70
2023/07/07 01:00:19;;;;;;;;;;;;;;;18.72;48.23;100854.72;4866791;29;6817;-72
2023/07/07 01:02:55;;;;;;;;;;;;;;;18.68;47.87;100850.31;4844452;29;6773;-70
2023/07/07 01:05:28;;;;;;;;;;;;;;;18.64;48.01;100861.50;4845331;29;7223;-72
2023/07/07 01:08:01;;;;;;;;;;;;;;;18.59;48.28;100864.00;4866065;29;7011;-71
2023/07/07 01:10:27;;;;;;;;;;;;;;;18.55;48.25;100864.75;4861149;29;7131;-71
2023/07/07 01:12:52;;;;;;;;;;;;;;;18.51;48.38;100859.44;4847828;29;6946;-71
2023/07/07 01:15:22;;;;;;;;;;;;;;;18.47;48.72;100866.28;4839236;29;6788;-70
2023/07/07 01:18:11;;;;;;;;;;;;;;;18.44;48.23;100867.09;4851851;29;6976;-72
2023/07/07 01:21:01;;;;;;;;;;;;;;;18.40;48.23;100867.88;4859240;29;6824;-71
2023/07/07 01:23:57;;;;;;;;;;;;;;;18.36;48.37;100867.75;4845054;29;6973;-72
2023/07/07 01:26:55;;;;;;;;;;;;;;;18.29;48.98;100858.97;4854621;29;7295;-71
2023/07/07 01:29:51;;;;;;;;;;;;;;;18.22;48.94;100857.06;4846691;29;7026;-71
2023/07/07 01:32:21;;;;;;;;;;;;;;;18.14;48.94;100862.94;4842741;29;6985;-71
2023/07/07 01:34:48;;;;;;;;;;;;;;;18.11;48.91;100857.66;4847144;29;6877;-72
2023/07/07 01:37:14;;;;;;;;;;;;;;;18.08;48.82;100861.91;4841110;29;7218;-72
2023/07/07 01:39:43;;;;;;;;;;;;;;;18.06;49.47;100869.66;4858666;29;6854;-71
2023/07/07 01:42:39;;;;;;;;;;;;;;;18.03;49.13;100865.28;4829440;29;7007;-71
2023/07/07 01:45:16;;;;;;;;;;;;;;;18.03;49.46;100869.53;4859620;29;6824;-70
2023/07/07 01:48:08;;;;;;;;;;;;;;;18.01;49.16;100866.03;4849288;29;6987;-71
2023/07/07 01:50:37;;;;;;;;;;;;;;;17.99;49.06;100867.72;4843193;29;7145;-71
2023/07/07 01:53:13;;;;;;;;;;;;;;;17.97;49.62;100867.69;4863499;29;6808;-72
2023/07/07 01:55:50;;;;;;;;;;;;;;;17.95;49.56;100864.16;4843503;29;6809;-71
2023/07/07 01:58:19;;;;;;;;;;;;;;;17.94;49.57;100864.13;4846461;29;7234;-73
2023/07/07 02:00:49;;;;;;;;;;;;;;;17.93;49.20;100859.78;4842135;29;6927;-71
2023/07/07 02:03:16;;;;;;;;;;;;;;;17.90;49.38;100853.69;4846748;29;6804;-70
2023/07/07 02:05:41;;;;;;;;;;;;;;;17.88;49.23;100860.56;4842176;29;6789;-70
2023/07/07 02:08:07;;;;;;;;;;;;;;;17.84;49.62;100858.72;4859002;29;8178;-71
2023/07/07 02:10:33;;;;;;;;;;;;;;;17.82;49.82;100857.78;4844460;29;6957;-71
2023/07/07 02:12:59;;;;;;;;;;;;;;;17.77;49.61;100855.09;4853219;29;6802;-71
2023/07/07 02:15:24;;;;;;;;;;;;;;;17.76;49.80;100857.63;4860684;29;6984;-71
2023/07/07 02:17:50;;;;;;;;;;;;;;;17.74;49.47;100859.31;4851871;29;6801;-74
2023/07/07 02:20:16;;;;;;;;;;;;;;;17.70;50.20;100853.16;4842744;29;7050;-73
2023/07/07 02:22:41;;;;;;;;;;;;;;;17.68;49.97;100854.84;4843442;29;6984;-70
2023/07/07 02:25:08;;;;;;;;;;;;;;;17.67;50.04;100865.16;4843266;29;6975;-75
2023/07/07 02:27:34;;;;;;;;;;;;;;;17.66;50.08;100860.81;4856217;29;8303;-75
2023/07/07 02:30:00;;;;;;;;;;;;;;;17.65;49.83;100861.66;4862849;29;7236;-75
2023/07/07 02:32:28;;;;;;;;;;;;;;;17.62;50.27;100855.56;4827708;29;6969;-73
2023/07/07 02:34:56;;;;;;;;;;;;;;;17.63;50.31;100865.09;4827484;29;7024;-73
2023/07/07 02:37:23;;;;;;;;;;;;;;;17.60;50.00;100859.84;4856379;29;6833;-72
2023/07/07 02:39:49;;;;;;;;;;;;;;;17.61;50.19;100864.19;4839794;29;6797;-72
2023/07/07 02:42:15;;;;;;;;;;;;;;;17.63;49.81;100853.88;4840376;29;6801;-72
2023/07/07 02:44:41;;;;;;;;;;;;;;;17.68;49.58;100861.75;4826811;29;7121;-75
2023/07/07 02:47:08;;;;;;;;;;;;;;;17.71;49.81;100854.06;4846981;29;6841;-72
2023/07/07 02:49:34;;;;;;;;;;;;;;;17.74;49.92;100855.00;4845737;29;6801;-72
2023/07/07 02:52:00;;;;;;;;;;;;;;;17.77;49.31;100856.81;4840428;29;7156;-72
2023/07/07 02:54:26;;;;;;;;;;;;;;;17.78;49.26;100858.56;4843596;29;6856;-72
2023/07/07 02:56:53;;;;;;;;;;;;;;;17.78;49.35;100863.75;4827727;29;7084;-72
2023/07/07 02:59:19;;;;;;;;;;;;;;;17.76;49.45;100858.53;4844720;29;6801;-72
2023/07/07 03:01:45;;;;;;;;;;;;;;;17.76;49.25;100861.13;4843298;29;7054;-72
2023/07/07 03:04:12;;;;;;;;;;;;;;;17.76;49.47;100860.22;4854861;29;6815;-72
2023/07/07 03:06:39;;;;;;;;;;;;;;;17.73;49.33;100863.63;4856560;29;6788;-72
2023/07/07 03:09:06;;;;;;;;;;;;;;;17.68;49.55;100869.53;4857159;29;7263;-73
2023/07/07 03:11:32;;;;;;;;;;;;;;;17.61;49.80;100864.19;4840478;29;6952;-72
2023/07/07 03:13:59;;;;;;;;;;;;;;;17.53;50.19;100868.28;4840894;29;6790;-73
2023/07/07 03:16:31;;;;;;;;;;;;;;;17.45;49.99;100860.31;4844802;29;6876;-72
2023/07/07 03:19:03;;;;;;;;;;;;;;;17.39;49.99;100867.03;4842397;29;6928;-73
2023/07/07 03:21:31;;;;;;;;;;;;;;;17.30;50.14;100863.34;4859134;29;7035;-73
2023/07/07 03:23:57;;;;;;;;;;;;;;;17.23;49.89;100858.84;4857291;29;7313;-73
2023/07/07 03:26:26;;;;;;;;;;;;;;;17.15;50.27;100865.50;4837260;29;6933;-73
2023/07/07 03:28:52;;;;;;;;;;;;;;;17.07;50.95;100858.38;4861615;29;6796;-73
2023/07/07 03:31:22;;;;;;;;;;;;;;;17.01;50.74;100867.69;4842911;29;7254;-73
2023/07/07 03:33:52;;;;;;;;;;;;;;;16.94;50.80;100866.63;4845376;29;6805;-72
2023/07/07 03:36:22;;;;;;;;;;;;;;;16.89;51.14;100860.41;4837994;29;6856;-72
2023/07/07 03:38:49;;;;;;;;;;;;;;;16.84;51.03;100869.78;4828823;29;7061;-73
2023/07/07 03:41:19;;;;;;;;;;;;;;;16.81;51.53;100857.59;4839230;29;7251;-73
2023/07/07 03:43:45;;;;;;;;;;;;;;;16.77;51.98;100858.34;4830804;29;7048;-73
2023/07/07 03:46:18;;;;;;;;;;;;;;;16.76;51.52;100870.41;4845371;29;6788;-73
2023/07/07 03:48:45;;;;;;;;;;;;;;;16.74;52.14;100873.78;4845452;29;6821;-73
2023/07/07 03:51:13;;;;;;;;;;;;;;;16.72;52.15;100875.44;4844777;29;7485;-72
2023/07/07 03:53:39;;;;;;;;;;;;;;;16.73;52.25;100870.31;4864609;29;6865;-73
2023/07/07 03:56:05;;;;;;;;;;;;;;;16.72;51.87;100863.41;4855748;29;6789;-72
2023/07/07 03:58:32;;;;;;;;;;;;;;;16.72;52.34;100865.97;4844227;29;6992;-73
2023/07/07 04:01:07;;;;;;;;;;;;;;;16.73;52.19;100872.91;4845036;29;6793;-73
2023/07/07 04:03:33;;;;;;;;;;;;;;;16.74;52.37;100877.25;4857887;29;7060;-73
2023/07/07 04:06:00;;;;;;;;;;;;;;;16.77;52.63;100874.75;4855417;29;6942;-73
2023/07/07 04:08:26;;;;;;;;;;;;;;;16.80;52.42;100869.69;4839465;29;6995;-73
2023/07/07 04:11:20;;;;;;;;;;;;;;;16.86;52.70;100878.44;4838692;29;6784;-73
2023/07/07 04:13:48;;;;;;;;;;;;;;;16.89;52.72;100879.41;4840933;29;7009;-73
2023/07/07 04:16:25;;;;;;;;;;;;;;;16.96;52.50;100877.03;4853040;29;6812;-73
2023/07/07 04:18:54;;;;;;;;;;;;;;;17.02;52.80;100879.81;4863125;29;7301;-73
2023/07/07 04:21:25;;;;;;;;;;;;;;;17.10;52.82;100877.47;4842044;29;6796;-73
2023/07/07 04:23:54;;;;;;;;;;;;;;;17.29;54.08;100879.75;4848832;29;6812;-73
2023/07/07 04:26:22;;;;;;;;;;;;;;;17.58;54.05;100871.88;4855442;29;7252;-73
2023/07/07 04:28:51;;;;;;;;;;;;;;;17.96;54.59;100876.28;4858463;29;7003;-73
2023/07/07 04:31:18;;;;;;;;;;;;;;;18.38;55.18;100866.06;4843161;29;8351;-73
2023/07/07 04:33:43;;;;;;;;;;;;;;;18.83;54.38;100861.88;4858541;29;6949;-73
2023/07/07 04:36:13;;;;;;;;;;;;;;;19.28;53.78;100857.63;4860329;29;6769;-73
2023/07/07 04:38:39;;;;;;;;;;;;;;;19.69;53.27;100859.22;4850832;29;8975;-73
2023/07/07 04:41:21;;;;;;;;;;;;;;;20.15;53.25;100859.16;4852027;29;6817;-73
2023/07/07 04:43:50;;;;;;;;;;;;;;;20.61;52.42;100863.28;4858256;29;6968;-73
2023/07/07 04:46:33;;;;;;;;;;;;;;;21.04;51.26;100861.28;4839221;29;6894;-73
2023/07/07 04:49:06;;;;;;;;;;;;;;;21.50;50.25;100857.44;4837110;29;7183;-73
2023/07/07 04:51:34;;;;;;;;;;;;;;;21.89;49.59;100861.31;4858847;29;7210;-73
2023/07/07 04:53:59;;;;;;;;;;;;;;;22.25;48.93;100858.97;4854891;29;6836;-73
2023/07/07 04:56:25;;;;;;;;;;;;;;;22.59;47.89;100856.59;4837458;29;6785;-73
2023/07/07 04:58:53;;;;;;;;;;;;;;;22.93;47.31;100857.63;4853570;29;6789;-73
2023/07/07 05:01:25;;;;;;;;;;;;;;;23.24;46.78;100855.09;4843293;29;6975;-73
2023/07/07 05:03:54;;;;;;;;;;;;;;;23.55;45.87;100858.69;4842232;29;6825;-73
2023/07/07 05:06:21;;;;;;;;;;;;;;;23.86;45.45;100852.63;4841404;29;7160;-73
2023/07/07 05:08:47;;;;;;;;;;;;;;;24.12;44.45;100850.03;4851471;29;7216;-73
2023/07/07 05:11:17;;;;;;;;;;;;;;;24.41;44.75;100850.81;4854179;29;7182;-74
2023/07/07 05:13:46;;;;;;;;;;;;;;;24.69;44.10;100846.41;4856287;29;6900;-74
2023/07/07 05:16:16;;;;;;;;;;;;;;;24.95;44.03;100849.81;4846355;29;6803;-73
2023/07/07 05:18:42;;;;;;;;;;;;;;;25.23;43.49;100854.91;4865883;29;6820;-74
2023/07/07 05:21:14;;;;;;;;;;;;;;;25.54;43.28;100864.34;4843363;29;6841;-73
2023/07/07 05:23:41;;;;;;;;;;;;;;;25.82;43.11;100858.91;4841429;29;6937;-73
2023/07/07 05:26:07;;;;;;;;;;;;;;;26.08;42.74;100853.44;4860168;29;6932;-74
2023/07/07 05:28:33;;;;;;;;;;;;;;;26.31;41.87;100850.59;4831507;29;7043;-74
2023/07/07 05:30:59;;;;;;;;;;;;;;;26.49;41.40;100848.66;4826615;29;8559;-74
2023/07/07 05:33:28;;;;;;;;;;;;;;;26.62;40.92;100845.03;4847883;29;6796;-73
2023/07/07 05:35:58;;;;;;;;;;;;;;;26.74;40.56;100851.00;4848825;29;6800;-74
2023/07/07 05:38:26;;;;;;;;;;;;;;;26.87;40.10;100849.97;4850862;29;7157;-73
2023/07/07 05:40:53;;;;;;;;;;;;;;;27.05;40.26;100858.53;4860965;29;7350;-73
2023/07/07 05:43:23;;;;;;;;;;;;;;;27.27;40.46;100852.97;4846140;29;6800;-73
2023/07/07 05:46:05;;;;;;;;;;;;;;;27.52;39.61;100853.47;4864272;29;6875;-74
2023/07/07 05:48:31;;;;;;;;;;;;;;;27.75;39.08;100854.91;4854655;29;7020;-74
2023/07/07 05:51:00;;;;;;;;;;;;;;;27.93;38.64;100855.50;4852090;29;7304;-73
2023/07/07 05:53:26;;;;;;;;;;;;;;;28.04;38.79;100857.91;4866118;29;6819;-74
2023/07/07 05:56:03;;;;;;;;;;;;;;;28.13;38.13;100849.84;4862290;29;6777;-74
2023/07/07 05:58:29;;;;;;;;;;;;;;;28.09;38.11;100859.56;4861008;29;6965;-74
2023/07/07 06:00:54;;;;;;;;;;;;;;;28.00;37.68;100865.00;4849607;29;6983;-74
2023/07/07 06:03:20;;;;;;;;;;;;;;;27.86;37.74;100860.84;4849330;29;6781;-74
2023/07/07 06:05:46;;;;;;;;;;;;;;;27.67;37.71;100862.94;4837700;29;6979;-74
2023/07/07 06:08:11;;;;;;;;;;;;;;;27.39;37.23;100863.31;4850332;29;7073;-73
2023/07/07 06:10:37;;;;;;;;;;;;;;;27.03;37.21;100869.06;4860136;29;6970;-73
2023/07/07 06:13:03;;;;;;;;;;;;;;;26.68;37.44;100865.09;4847255;29;6899;-73
2023/07/07 06:15:30;;;;;;;;;;;;;;;26.36;37.63;100868.94;4836542;29;7176;-73
2023/07/07 06:17:56;;;;;;;;;;;;;;;26.05;38.13;100879.72;4867543;29;6781;-73
2023/07/07 06:20:22;;;;;;;;;;;;;;;25.76;38.49;100880.81;4845733;29;6843;-73
2023/07/07 06:22:49;;;;;;;;;;;;;;;25.55;38.88;100872.22;4849728;29;7191;-73
2023/07/07 06:25:15;;;;;;;;;;;;;;;25.33;38.96;100880.22;4831768;29;6994;-73
2023/07/07 06:27:41;;;;;;;;;;;;;;;25.15;39.35;100881.16;4847361;29;6821;-73
2023/07/07 06:30:07;;;;;;;;;;;;;;;25.01;39.60;100883.84;4843474;29;6757;-73
2023/07/07 06:32:32;;;;;;;;;;;;;;;24.85;40.00;100874.31;4842604;29;6961;-73
2023/07/07 06:34:58;;;;;;;;;;;;;;;24.76;40.61;100885.66;4845075;29;6955;-73
2023/07/07 06:37:24;;;;;;;;;;;;;;;24.69;40.61;100883.09;4828509;29;6809;-73
2023/07/07 06:39:49;;;;;;;;;;;;;;;24.63;40.39;100888.34;4845219;29;7066;-73
2023/07/07 06:42:15;;;;;;;;;;;;;;;24.59;41.10;100880.47;4826515;29;6784;-73
2023/07/07 06:44:41;;;;;;;;;;;;;;;24.55;40.64;100888.34;4827549;29;6773;-73
2023/07/07 06:47:17;;;;;;;;;;;;;;;24.53;40.93;100897.09;4828218;29;7461;-73
2023/07/07 06:49:43;;;;;;;;;;;;;;;24.49;41.06;100895.38;4818900;29;6797;-73
2023/07/07 06:52:09;;;;;;;;;;;;;;;24.50;41.29;100902.34;4831053;29;7394;-73
2023/07/07 06:54:35;;;;;;;;;;;;;;;24.51;40.93;100897.09;4826619;29;6792;-73
2023/07/07 06:57:01;;;;;;;;;;;;;;;24.57;41.24;100892.72;4842765;29;6975;-73
2023/07/07 06:59:26;;;;;;;;;;;;;;;24.62;41.15;100893.56;4842346;29;7223;-73
2023/07/07 07:01:52;;;;;;;;;;;;;;;24.75;41.67;100897.91;4837437;29;6856;-73
2023/07/07 07:04:17;;;;;;;;;;;;;;;25.02;41.50;100890.88;4855231;29;6928;-73
2023/07/07 07:06:44;;;;;;;;;;;;;;;25.37;41.17;100902.91;4859576;29;6781;-73
2023/07/07 07:09:10;;;;;;;;;;;;;;;25.81;41.58;100894.81;4840874;29;6797;-74
2023/07/07 07:11:37;;;;;;;;;;;;;;;26.30;41.61;100888.25;4841028;29;6797;-73
2023/07/07 07:14:02;;;;;;;;;;;;;;;26.85;40.72;100882.44;4859751;29;6967;-74
2023/07/07 07:16:28;;;;;;;;;;;;;;;27.40;40.92;100885.22;4843114;29;6780;-73
2023/07/07 07:18:54;;;;;;;;;;;;;;;27.96;39.66;100885.28;4845370;29;6828;-73
2023/07/07 07:21:20;;;;;;;;;;;;;;;28.50;39.53;100890.50;4844903;29;6978;-73
2023/07/07 07:23:46;;;;;;;;;;;;;;;29.02;38.20;100883.34;4848031;29;6781;-74
2023/07/07 07:26:12;;;;;;;;;;;;;;;29.56;37.92;100888.34;4843531;29;7262;-74
2023/07/07 07:28:37;;;;;;;;;;;;;;;30.05;36.51;100887.16;4827137;29;7155;-73
2023/07/07 07:31:03;;;;;;;;;;;;;;;30.44;35.38;100882.59;4849434;29;6852;-73
2023/07/07 07:33:28;;;;;;;;;;;;;;;30.80;35.48;100879.84;4871011;29;6780;-73
2023/07/07 07:35:54;;;;;;;;;;;;;;;31.07;33.94;100876.44;4854306;29;6781;-73
2023/07/07 07:38:21;;;;;;;;;;;;;;;31.30;33.82;100888.97;4869734;29;6788;-71
2023/07/07 07:40:50;;;;;;;;;;;;;;;31.54;32.95;100886.47;4870299;29;6773;-71
2023/07/07 07:43:15;;;;;;;;;;;;;;;31.74;32.83;100877.88;4871971;29;6936;-73
2023/07/07 07:45:41;;;;;;;;;;;;;;;31.94;31.69;100879.00;4860556;29;6745;-71
2023/07/07 07:48:06;;;;;;;;;;;;;;;32.07;31.06;100880.31;4861075;29;6962;-71
2023/07/07 07:50:33;;;;;;;;;;;;;;;32.22;30.96;100888.66;4858916;29;6797;-71
2023/07/07 07:52:59;;;;;;;;;;;;;;;32.35;30.77;100881.97;4866027;29;6941;-71
2023/07/07 07:55:26;;;;;;;;;;;;;;;32.53;30.32;100879.63;4870920;29;6896;-71
2023/07/07 07:57:51;;;;;;;;;;;;;;;32.72;30.05;100879.78;4876326;29;6999;-71
2023/07/07 08:00:17;;;;;;;;;;;;;;;32.92;30.08;100884.38;4881217;29;6789;-71
2023/07/07 08:02:43;;;;;;;;;;;;;;;33.16;29.52;100876.38;4881935;29;6993;-71
2023/07/07 08:05:10;;;;;;;;;;;;;;;33.38;29.00;100880.84;4874118;29;6959;-71
2023/07/07 08:07:36;;;;;;;;;;;;;;;33.58;29.11;100880.03;4870643;29;6848;-71
2023/07/07 08:10:03;;;;;;;;;;;;;;;33.79;28.65;100885.38;4873855;29;7487;-71
2023/07/07 08:12:29;;;;;;;;;;;;;;;33.97;28.09;100881.09;4843304;29;6849;-71
2023/07/07 08:14:55;;;;;;;;;;;;;;;34.17;28.01;100882.03;4845617;29;6777;-71
2023/07/07 08:17:20;;;;;;;;;;;;;;;34.27;26.53;100885.16;4845802;29;6823;-72
2023/07/07 08:19:46;;;;;;;;;;;;;;;34.34;26.90;100886.59;4844774;29;6865;-72
2023/07/07 08:22:23;;;;;;;;;;;;;;;34.47;26.54;100885.13;4841520;29;7351;-71
2023/07/07 08:24:55;;;;;;;;;;;;;;;34.59;26.03;100885.53;4844023;29;6800;-71
2023/07/07 08:27:25;;;;;;;;;;;;;;;34.79;25.88;100891.75;4841090;29;6801;-71
2023/07/07 08:29:52;;;;;;;;;;;;;;;34.96;25.45;100883.84;4842901;29;7193;-72
2023/07/07 08:32:22;;;;;;;;;;;;;;;35.17;25.59;100891.75;4842149;29;6796;-72
2023/07/07 08:34:50;;;;;;;;;;;;;;;35.37;25.34;100888.09;4841795;29;6785;-71
2023/07/07 08:37:17;;;;;;;;;;;;;;;35.59;24.49;100887.94;4842496;29;6801;-72
2023/07/07 08:39:44;;;;;;;;;;;;;;;35.76;24.30;100882.69;4828546;29;6992;-72
2023/07/07 08:42:30;;;;;;;;;;;;;;;35.99;24.12;100886.84;4847093;29;6788;-71
2023/07/07 08:45:01;;;;;;;;;;;;;;;36.20;23.62;100884.03;4844741;29;6831;-71
2023/07/07 08:47:40;;;;;;;;;;;;;;;36.36;23.94;100884.94;4840395;29;6849;-71
2023/07/07 08:50:13;;;;;;;;;;;;;;;36.63;23.75;100875.56;4866721;29;6813;-72
2023/07/07 08:52:57;;;;;;;;;;;;;;;36.82;22.88;100880.75;4844455;29;7067;-72
2023/07/07 08:55:32;;;;;;;;;;;;;;;37.00;22.54;100884.19;4843557;29;7019;-72
2023/07/07 08:58:25;;;;;;;;;;;;;;;37.12;22.54;100884.47;4848538;29;6821;-72
2023/07/07 09:01:33;;;;;;;;;;;;;;;37.21;22.25;100881.28;4846630;29;6882;-72
2023/07/07 09:04:11;;;;;;;;;;;;;;;37.36;21.91;100883.06;4864358;29;6816;-72
2023/07/07 09:07:03;;;;;;;;;;;;;;;37.58;21.90;100875.66;4847865;29;7165;-72
2023/07/07 09:09:37;;;;;;;;;;;;;;;37.80;21.51;100875.22;4844893;29;6984;-72
2023/07/07 09:12:05;;;;;;;;;;;;;;;38.08;21.43;100881.59;4839978;29;6868;-71
2023/07/07 09:14:31;;;;;;;;;;;;;;;38.21;21.27;100879.03;4845188;29;6850;-72
2023/07/07 09:17:06;;;;;;;;;;;;;;;38.34;21.43;100877.34;4844766;29;6781;-72
2023/07/07 09:19:42;;;;;;;;;;;;;;;38.54;21.36;100880.59;4863729;29;7046;-71
2023/07/07 09:22:46;;;;;;;;;;;;;;;38.75;20.77;100866.81;4845441;29;6800;-72
2023/07/07 09:25:44;;;;;;;;;;;;;;;38.86;20.61;100869.66;4859161;29;6956;-72
2023/07/07 09:28:14;;;;;;;;;;;;;;;39.03;20.54;100871.25;4847791;29;6813;-72
2023/07/07 09:30:53;;;;;;;;;;;;;;;39.26;20.25;100873.38;4861063;29;6793;-72
2023/07/07 09:33:23;;;;;;;;;;;;;;;39.39;19.90;100866.22;4843945;29;7219;-72
2023/07/07 09:36:16;;;;;;;;;;;;;;;39.51;20.10;100874.44;4858305;29;7027;-72
2023/07/07 09:39:13;;;;;;;;;;;;;;;39.67;19.82;100872.44;4856422;29;6965;-72
2023/07/07 09:42:08;;;;;;;;;;;;;;;39.92;19.80;100868.09;4857863;29;6800;-71
2023/07/07 09:45:33;;;;;;;;;;;;;;;40.21;19.43;100867.88;4858473;29;6821;-71
2023/07/07 09:48:07;;;;;;;;;;;;;;;40.51;19.40;100863.13;4840408;29;6997;-71
2023/07/07 09:51:01;;;;;;;;;;;;;;;40.61;18.93;100864.19;4859005;29;6785;-70
2023/07/07 09:53:33;;;;;;;;;;;;;;;40.71;18.93;100861.69;4858709;29;7041;-71
2023/07/07 09:56:00;;;;;;;;;;;;;;;40.87;18.84;100861.44;4850268;29;6808;-71
2023/07/07 09:58:44;;;;;;;;;;;;;;;41.08;18.35;100856.31;4858175;29;6804;-71
2023/07/07 10:01:10;;;;;;;;;;;;;;;41.29;17.76;100854.81;4845924;29;6820;-70
2023/07/07 10:03:48;;;;;;;;;;;;;;;41.53;17.74;100860.19;4830642;29;6836;-70
2023/07/07 10:06:36;;;;;;;;;;;;;;;41.61;17.09;100862.28;4848133;29;7008;-71
2023/07/07 10:09:03;;;;;;;;;;;;;;;41.43;16.76;100853.75;4843894;29;7158;-71
2023/07/07 10:11:36;;;;;;;;;;;;;;;41.13;16.67;100849.72;4840368;29;6788;-71
2023/07/07 10:14:06;;;;;;;;;;;;;;;41.01;17.08;100848.81;4845411;29;6797;-71
2023/07/07 10:16:32;;;;;;;;;;;;;;;40.95;16.58;100852.81;4843903;29;7099;-71
2023/07/07 10:19:11;;;;;;;;;;;;;;;40.92;16.46;100845.84;4842435;29;7329;-71
2023/07/07 10:21:37;;;;;;;;;;;;;;;40.96;16.34;100847.31;4863243;29;6990;-71
2023/07/07 10:24:03;;;;;;;;;;;;;;;41.01;16.38;100848.81;4841000;29;7120;-71
2023/07/07 10:26:29;;;;;;;;;;;;;;;41.03;15.94;100847.72;4842919;29;6780;-71
2023/07/07 10:29:01;;;;;;;;;;;;;;;41.02;16.24;100846.00;4862904;29;6823;-71
2023/07/07 10:31:28;;;;;;;;;;;;;;;41.12;16.54;100851.56;4846421;29;6860;-71
2023/07/07 10:34:14;;;;;;;;;;;;;;;41.15;16.39;100845.94;4861236;29;8501;-70
2023/07/07 10:36:42;;;;;;;;;;;;;;;41.27;16.37;100846.03;4840539;29;7698;-71
2023/07/07 10:39:08;;;;;;;;;;;;;;;41.48;15.98;100846.22;4844210;29;7126;-71
2023/07/07 10:41:34;;;;;;;;;;;;;;;41.71;16.68;100833.72;4858296;29;7009;-71
2023/07/07 10:44:00;;;;;;;;;;;;;;;42.05;16.38;100841.81;4860505;29;6975;-71
2023/07/07 10:46:26;;;;;;;;;;;;;;;42.42;15.77;100831.78;4845045;29;6855;-71
2023/07/07 10:48:56;;;;;;;;;;;;;;;42.78;15.21;100840.56;4825367;29;7339;-71
2023/07/07 10:51:58;;;;;;;;;;;;;;;43.08;14.89;100827.41;4844016;29;6797;-71
2023/07/07 10:54:39;;;;;;;;;;;;;;;43.23;14.41;100833.34;4845095;29;7031;-71
2023/07/07 10:57:56;;;;;;;;;;;;;;;42.84;14.55;100829.28;4855956;29;7132;-71
2023/07/07 11:00:46;;;;;;;;;;;;;;;42.47;14.66;100830.44;4844757;29;7084;-71
2023/07/07 11:04:08;;;;;;;;;;;;;;;42.28;14.93;100827.50;4843725;29;7016;-71
2023/07/07 11:06:59;;;;;;;;;;;;;;;42.42;15.09;100829.97;4843739;29;7010;-71
2023/07/07 11:09:45;;;;;;;;;;;;;;;42.61;15.10;100823.94;4845426;29;6820;-70
2023/07/07 11:12:28;;;;;;;;;;;;;;;42.41;14.91;100833.63;4856357;29;7244;-70
2023/07/07 11:15:25;;;;;;;;;;;;;;;42.30;14.76;100818.34;4843665;29;6808;-71
2023/07/07 11:18:27;;;;;;;;;;;;;;;42.33;14.41;100815.41;4845321;29;6893;-70
2023/07/07 11:21:43;;;;;;;;;;;;;;;42.29;14.78;100815.75;4843540;29;6830;-70
2023/07/07 11:24:34;;;;;;;;;;;;;;;42.32;14.91;100816.38;4853770;29;6816;-71
2023/07/07 11:27:37;;;;;;;;;;;;;;;42.38;14.57;100806.09;4851601;29;6804;-71
2023/07/07 11:30:20;;;;;;;;;;;;;;;42.48;14.27;100804.38;4844744;29;7362;-70
2023/07/07 11:33:07;;;;;;;;;;;;;;;42.42;14.16;100812.94;4857803;29;11944;-70
2023/07/07 11:35:56;;;;;;;;;;;;;;;42.26;14.02;100810.63;4845973;29;7071;-70
2023/07/07 11:39:21;;;;;;;;;;;;;;;42.18;14.69;100812.09;4846135;29;6809;-71
2023/07/07 11:42:17;;;;;;;;;;;;;;;42.12;14.17;100807.25;4853667;29;7077;-70
2023/07/07 11:44:54;;;;;;;;;;;;;;;42.14;14.18;100805.28;4845410;29;6824;-70
2023/07/07 11:47:48;;;;;;;;;;;;;;;42.10;14.39;100793.03;4842470;29;6937;-70
2023/07/07 11:51:09;;;;;;;;;;;;;;;42.10;14.38;100795.72;4845896;29;7438;-70
2023/07/07 11:53:54;;;;;;;;;;;;;;;42.08;14.23;100789.59;4839322;29;7094;-70
2023/07/07 11:56:31;;;;;;;;;;;;;;;41.90;13.96;100798.13;4837019;29;7077;-70
2023/07/07 11:59:38;;;;;;;;;;;;;;;41.91;14.43;100799.84;4840785;29;8115;-70
2023/07/07 12:02:26;;;;;;;;;;;;;;;41.99;14.02;100795.69;4852981;29;7238;-70
2023/07/07 12:04:57;;;;;;;;;;;;;;;41.81;13.78;100796.16;4855273;29;7131;-70
2023/07/07 12:07:40;;;;;;;;;;;;;;;41.70;13.77;100798.84;4856400;29;6785;-70
2023/07/07 12:10:43;;;;;;;;;;;;;;;41.73;13.98;100795.94;4842287;29;6785;-70
2023/07/07 12:13:21;;;;;;;;;;;;;;;41.90;14.05;100790.06;4843143;29;6832;-70
2023/07/07 12:15:58;;;;;;;;;;;;;;;42.03;13.69;100786.41;4856775;29;6796;-70
2023/07/07 12:18:34;;;;;;;;;;;;;;;42.05;13.72;100784.44;4857184;29;7303;-70
2023/07/07 12:21:23;;;;;;;;;;;;;;;42.00;13.74;100789.31;4854621;29;7119;-70
2023/07/07 12:24:28;;;;;;;;;;;;;;;41.88;13.82;100792.03;4854530;29;6809;-69
2023/07/07 12:27:16;;;;;;;;;;;;;;;42.05;13.50;100784.44;4854699;29;7151;-69
2023/07/07 12:29:44;;;;;;;;;;;;;;;42.26;13.82;100778.34;4845593;29;7052;-71
2023/07/07 12:32:10;;;;;;;;;;;;;;;42.45;13.85;100770.47;4860656;29;7043;-69
2023/07/07 12:35:02;;;;;;;;;;;;;;;42.51;13.25;100773.69;4825416;29;7160;-69
2023/07/07 12:37:27;;;;;;;;;;;;;;;42.53;13.53;100764.47;4858785;29;6829;-69
2023/07/07 12:40:08;;;;;;;;;;;;;;;42.66;13.13;100772.38;4844647;29;6781;-70
2023/07/07 12:42:39;;;;;;;;;;;;;;;42.81;13.33;100761.31;4864649;29;7016;-69
2023/07/07 12:45:38;;;;;;;;;;;;;;;42.94;12.96;100767.41;4844263;29;6871;-69
2023/07/07 12:48:22;;;;;;;;;;;;;;;42.86;12.94;100756.38;4859812;29;6828;-69
2023/07/07 12:50:49;;;;;;;;;;;;;;;42.75;12.99;100755.44;4858055;29;6821;-71
2023/07/07 12:53:27;;;;;;;;;;;;;;;42.66;12.97;100756.22;4859537;29;7035;-70
2023/07/07 12:56:00;;;;;;;;;;;;;;;42.61;12.97;100753.06;4858809;29;6817;-68
2023/07/07 12:58:37;;;;;;;;;;;;;;;42.52;13.46;100748.44;4835416;29;6781;-69
2023/07/07 13:01:15;;;;;;;;;;;;;;;42.48;13.30;100747.81;4838152;29;6809;-69
2023/07/07 13:04:05;;;;;;;;;;;;;;;42.47;14.02;100735.34;4847213;29;9656;-69
2023/07/07 13:06:30;;;;;;;;;;;;;;;42.63;13.56;100743.03;4841486;29;7290;-69
2023/07/07 13:09:20;;;;;;;;;;;;;;;42.79;13.44;100733.66;4841537;29;7717;-70
2023/07/07 13:11:59;;;;;;;;;;;;;;;42.77;13.27;100730.22;4840952;29;6820;-67
2023/07/07 13:14:40;;;;;;;;;;;;;;;42.72;12.93;100728.78;4827162;29;7025;-70
2023/07/07 13:17:17;;;;;;;;;;;;;;;42.73;13.16;100718.84;4843996;29;6812;-71
2023/07/07 13:19:50;;;;;;;;;;;;;;;42.73;13.22;100714.31;4858168;29;6809;-68